createdAt,value
2022-08-26T00:02:20.557Z,54.90
2022-08-26T00:04:50.493Z,54.95
2022-08-26T00:07:19.304Z,54.65
2022-08-26T00:09:47.644Z,54.88
2022-08-26T00:12:16.641Z,55.57
2022-08-26T00:14:44.977Z,55.36
2022-08-26T00:17:13.591Z,56.13
2022-08-26T00:19:41.949Z,57.01
2022-08-26T00:22:13.998Z,56.15
2022-08-26T00:24:49.863Z,57.97
2022-08-26T00:27:18.238Z,61.63
2022-08-26T00:29:46.628Z,62.24
2022-08-26T00:32:14.952Z,60.48
2022-08-26T00:34:43.361Z,62.22
2022-08-26T00:37:16.141Z,61.16
2022-08-26T00:39:44.663Z,61.85
2022-08-26T00:42:14.165Z,65.22
2022-08-26T00:44:42.586Z,69.47
2022-08-26T00:47:22.597Z,68.16
2022-08-26T00:49:52.703Z,69.65
2022-08-26T00:52:24.229Z,70.19
2022-08-26T00:55:01.377Z,73.28
2022-08-26T00:57:32.087Z,72.64
2022-08-26T01:00:05.232Z,75.04
2022-08-26T01:02:33.668Z,71.84
2022-08-26T01:05:05.166Z,76.75
2022-08-26T01:07:36.327Z,75.36
2022-08-26T01:10:10.611Z,72.68
2022-08-26T01:12:43.853Z,77.74
2022-08-26T01:15:18.200Z,74.11
2022-08-26T01:17:46.591Z,75.23
2022-08-26T01:20:35.191Z,75.74
2022-08-26T01:23:08.954Z,72.54
2022-08-26T01:25:43.038Z,78.30
2022-08-26T01:28:17.347Z,75.01
2022-08-26T01:30:50.983Z,81.34
2022-08-26T01:33:24.582Z,81.18
2022-08-26T01:35:53.417Z,74.89
2022-08-26T01:38:23.723Z,75.68
2022-08-26T01:40:52.557Z,79.46
2022-08-26T01:43:28.347Z,77.98
2022-08-26T01:45:57.094Z,78.09
2022-08-26T01:48:31.840Z,78.27
2022-08-26T01:51:02.276Z,85.89
2022-08-26T01:53:32.406Z,84.99
2022-08-26T01:56:03.379Z,82.87
2022-08-26T01:58:37.590Z,83.98
2022-08-26T02:01:07.263Z,95.91
2022-08-26T02:03:59.836Z,100.00
2022-08-26T02:06:28.356Z,96.61
2022-08-26T02:09:02.008Z,92.05
2022-08-26T02:11:30.364Z,94.27
2022-08-26T02:14:04.426Z,94.82
2022-08-26T02:16:42.445Z,98.96
2022-08-26T02:19:17.217Z,99.97
2022-08-26T02:21:50.990Z,95.46
2022-08-26T02:24:27.498Z,90.65
2022-08-26T02:26:57.660Z,89.26
2022-08-26T02:29:33.596Z,93.98
2022-08-26T02:32:02.216Z,95.61
2022-08-26T02:34:33.030Z,100.00
2022-08-26T02:37:05.382Z,100.00
2022-08-26T02:39:37.747Z,100.00
2022-08-26T02:42:06.626Z,100.00
2022-08-26T02:44:35.255Z,100.00
2022-08-26T02:47:03.801Z,100.00
2022-08-26T02:49:33.653Z,100.00
2022-08-26T02:52:02.127Z,100.00
2022-08-26T02:54:30.546Z,100.00
2022-08-26T02:57:00.463Z,100.00
2022-08-26T02:59:29.291Z,100.00
2022-08-26T03:01:58.628Z,99.12
2022-08-26T03:04:27.027Z,100.00
2022-08-26T03:06:56.247Z,100.00
2022-08-26T03:09:24.918Z,100.00
2022-08-26T03:11:55.527Z,100.00
2022-08-26T03:14:26.185Z,100.00
2022-08-26T03:16:55.655Z,98.46
2022-08-26T03:19:25.714Z,100.00
2022-08-26T03:21:57.809Z,98.81
2022-08-26T03:24:27.568Z,99.19
2022-08-26T03:26:56.009Z,97.85
2022-08-26T03:29:43.542Z,100.00
2022-08-26T03:32:12.053Z,96.10
2022-08-26T03:34:40.612Z,98.99
2022-08-26T03:37:08.999Z,100.00
2022-08-26T03:39:38.062Z,100.00
2022-08-26T03:42:06.993Z,100.00
2022-08-26T03:44:41.986Z,100.00
2022-08-26T03:47:10.755Z,100.00
2022-08-26T03:49:39.475Z,100.00
2022-08-26T03:52:08.161Z,100.00
2022-08-26T03:54:36.470Z,100.00
2022-08-26T03:57:05.165Z,100.00
2022-08-26T03:59:34.229Z,100.00
2022-08-26T04:02:04.067Z,100.00
2022-08-26T04:04:39.820Z,99.83
2022-08-26T04:07:08.658Z,100.00
2022-08-26T04:09:37.192Z,100.00
2022-08-26T04:12:06.499Z,100.00
2022-08-26T04:14:37.762Z,100.00
2022-08-26T04:17:08.805Z,100.00
2022-08-26T04:19:37.167Z,100.00
2022-08-26T04:22:05.843Z,100.00
2022-08-26T04:24:34.726Z,100.00
2022-08-26T04:27:03.717Z,97.71
2022-08-26T04:29:33.146Z,96.09
2022-08-26T04:32:03.713Z,98.28
2022-08-26T04:34:33.501Z,100.00
2022-08-26T04:37:02.602Z,100.00
2022-08-26T04:39:30.923Z,100.00
2022-08-26T04:42:01.698Z,100.00
2022-08-26T04:44:31.730Z,100.00
2022-08-26T04:47:00.307Z,98.62
2022-08-26T04:49:28.890Z,100.00
2022-08-26T04:52:06.127Z,100.00
2022-08-26T04:54:36.128Z,100.00
2022-08-26T04:57:04.712Z,100.00
2022-08-26T04:59:38.491Z,95.36
2022-08-26T05:02:07.920Z,98.96
2022-08-26T05:04:37.502Z,98.16
2022-08-26T05:07:08.133Z,100.00
2022-08-26T05:09:38.124Z,99.82
2022-08-26T05:12:07.074Z,99.25
2022-08-26T05:14:35.443Z,95.83
2022-08-26T05:17:03.962Z,99.54
2022-08-26T05:19:33.111Z,100.00
2022-08-26T05:22:01.476Z,100.00
2022-08-26T05:24:31.202Z,100.00
2022-08-26T05:26:59.544Z,99.40
2022-08-26T05:29:28.265Z,98.79
2022-08-26T05:31:56.586Z,100.00
2022-08-26T05:34:25.774Z,100.00
2022-08-26T05:36:58.559Z,98.98
2022-08-26T05:39:26.920Z,100.00
2022-08-26T05:41:56.664Z,98.34
2022-08-26T05:44:24.969Z,94.60
2022-08-26T05:46:53.418Z,99.34
2022-08-26T05:49:26.225Z,95.53
2022-08-26T05:51:54.782Z,96.12
2022-08-26T05:54:23.077Z,98.57
2022-08-26T05:56:52.485Z,98.55
2022-08-26T05:59:24.641Z,99.11
2022-08-26T06:01:53.464Z,96.88
2022-08-26T06:04:23.107Z,100.00
2022-08-26T06:06:55.074Z,100.00
2022-08-26T06:09:23.464Z,96.89
2022-08-26T06:11:52.127Z,98.98
2022-08-26T06:14:23.865Z,98.48
2022-08-26T06:16:52.272Z,97.89
2022-08-26T06:19:22.118Z,96.76
2022-08-26T06:21:54.063Z,95.28
2022-08-26T06:24:40.828Z,94.68
2022-08-26T06:27:13.894Z,100.00
2022-08-26T06:29:45.033Z,100.00
2022-08-26T06:32:13.389Z,99.10
2022-08-26T06:34:41.732Z,96.64
2022-08-26T06:37:10.066Z,99.40
2022-08-26T06:39:41.049Z,94.01
2022-08-26T06:42:11.079Z,95.49
2022-08-26T06:44:41.674Z,94.96
2022-08-26T06:47:14.520Z,93.08
2022-08-26T06:49:44.214Z,96.76
2022-08-26T06:52:12.770Z,96.58
2022-08-26T06:54:43.304Z,94.63
2022-08-26T06:57:13.015Z,92.12
2022-08-26T06:59:45.022Z,93.97
2022-08-26T07:02:15.235Z,91.12
2022-08-26T07:04:47.827Z,97.49
2022-08-26T07:07:16.913Z,97.19
2022-08-26T07:09:45.929Z,98.39
2022-08-26T07:12:14.323Z,96.04
2022-08-26T07:14:47.282Z,99.04
2022-08-26T07:17:17.846Z,94.33
2022-08-26T07:19:49.699Z,93.02
2022-08-26T07:22:18.830Z,98.11
2022-08-26T07:24:47.399Z,97.34
2022-08-26T07:27:18.025Z,96.88
2022-08-26T07:29:46.764Z,95.04
2022-08-26T07:32:20.243Z,94.92
2022-08-26T07:34:51.582Z,96.98
2022-08-26T07:37:20.675Z,94.00
2022-08-26T07:39:49.083Z,97.13
2022-08-26T07:42:20.507Z,96.36
2022-08-26T07:44:49.261Z,94.83
2022-08-26T07:47:25.086Z,92.67
2022-08-26T07:49:56.161Z,96.61
2022-08-26T07:52:26.984Z,98.09
2022-08-26T07:54:58.166Z,98.45
2022-08-26T07:57:27.040Z,98.59
2022-08-26T07:59:56.142Z,98.45
2022-08-26T08:02:28.188Z,98.79
2022-08-26T08:04:58.389Z,93.13
2022-08-26T08:07:38.368Z,92.15
2022-08-26T08:10:16.204Z,92.10
2022-08-26T08:12:44.968Z,91.91
2022-08-26T08:15:14.454Z,92.33
2022-08-26T08:17:45.109Z,93.87
2022-08-26T08:20:15.946Z,96.54
2022-08-26T08:22:44.827Z,96.63
2022-08-26T08:25:14.752Z,95.25
2022-08-26T08:27:46.429Z,95.87
2022-08-26T08:30:20.794Z,97.87
2022-08-26T08:32:53.149Z,99.99
2022-08-26T08:35:23.561Z,100.00
2022-08-26T08:37:54.791Z,99.02
2022-08-26T08:40:26.534Z,100.00
2022-08-26T08:43:02.442Z,100.00
2022-08-26T08:45:37.630Z,100.00
2022-08-26T08:48:14.810Z,100.00
2022-08-26T08:50:46.967Z,96.36
2022-08-26T08:53:22.682Z,93.90
2022-08-26T08:56:05.139Z,93.88
2022-08-26T08:58:51.526Z,97.08
2022-08-26T09:01:31.126Z,96.30
2022-08-26T09:04:26.036Z,98.87
2022-08-26T09:06:58.991Z,98.95
2022-08-26T09:09:36.988Z,96.06
2022-08-26T09:12:08.997Z,97.14
2022-08-26T09:14:37.728Z,95.05
2022-08-26T09:17:17.783Z,92.71
2022-08-26T09:19:53.467Z,95.82
2022-08-26T09:22:32.319Z,94.56
2022-08-26T09:25:01.517Z,93.59
2022-08-26T09:27:50.496Z,99.46
2022-08-26T09:30:27.327Z,94.96
2022-08-26T09:33:03.023Z,94.91
2022-08-26T09:35:43.512Z,97.98
2022-08-26T09:38:26.733Z,94.50
2022-08-26T09:40:59.696Z,97.11
2022-08-26T09:43:29.187Z,96.66
2022-08-26T09:46:15.093Z,96.18
2022-08-26T09:48:43.745Z,94.31
2022-08-26T09:51:33.873Z,92.63
2022-08-26T09:54:05.724Z,93.96
2022-08-26T09:56:39.524Z,92.91
2022-08-26T09:59:12.091Z,94.34
2022-08-26T10:01:43.273Z,95.15
2022-08-26T10:04:21.260Z,95.50
2022-08-26T10:07:00.186Z,95.14
2022-08-26T10:09:30.071Z,93.99
2022-08-26T10:12:05.405Z,94.80
2022-08-26T10:14:39.865Z,96.05
2022-08-26T10:17:15.812Z,96.80
2022-08-26T10:19:57.046Z,94.87
2022-08-26T10:22:35.732Z,97.17
2022-08-26T10:25:12.390Z,95.48
2022-08-26T10:27:53.779Z,94.41
2022-08-26T10:30:25.605Z,94.76
2022-08-26T10:32:58.915Z,93.42
2022-08-26T10:35:28.128Z,93.12
2022-08-26T10:38:03.976Z,90.85
2022-08-26T10:40:52.917Z,91.26
2022-08-26T10:43:26.507Z,93.42
2022-08-26T10:46:00.414Z,94.89
2022-08-26T10:48:38.591Z,92.10
2022-08-26T10:51:08.600Z,89.39
2022-08-26T10:53:51.416Z,92.15
2022-08-26T10:56:35.543Z,91.06
2022-08-26T10:59:12.476Z,91.09
2022-08-26T11:01:51.060Z,88.93
2022-08-26T11:04:48.342Z,89.93
2022-08-26T11:07:41.171Z,88.56
2022-08-26T11:11:04.616Z,88.91
2022-08-26T11:14:03.075Z,87.58
2022-08-26T11:16:42.793Z,87.27
2022-08-26T11:19:58.976Z,85.83
2022-08-26T11:22:31.112Z,86.87
2022-08-26T11:25:11.595Z,86.82
2022-08-26T11:27:59.691Z,88.15
2022-08-26T11:30:56.906Z,88.53
2022-08-26T11:33:58.142Z,88.05
2022-08-26T11:36:58.242Z,85.85
2022-08-26T11:39:36.747Z,83.92
2022-08-26T11:42:28.461Z,84.98
2022-08-26T11:44:58.390Z,85.50
2022-08-26T11:47:31.522Z,84.05
2022-08-26T11:50:13.755Z,84.87
2022-08-26T11:52:42.256Z,82.87
2022-08-26T11:55:16.282Z,83.52
2022-08-26T11:57:51.886Z,83.82
2022-08-26T12:00:24.437Z,84.18
2022-08-26T12:02:54.716Z,83.67
2022-08-26T12:05:30.845Z,83.32
2022-08-26T12:08:05.035Z,80.42
2022-08-26T12:10:37.116Z,81.39
2022-08-26T12:13:08.045Z,81.80
2022-08-26T12:15:36.915Z,81.32
2022-08-26T12:18:30.756Z,82.17
2022-08-26T12:21:12.321Z,81.55
2022-08-26T12:23:47.559Z,80.19
2022-08-26T12:26:28.811Z,79.95
2022-08-26T12:29:02.339Z,80.10
2022-08-26T12:31:49.750Z,80.14
2022-08-26T12:34:18.767Z,78.70
2022-08-26T12:36:50.909Z,78.41
2022-08-26T12:39:29.321Z,78.94
2022-08-26T12:42:01.376Z,78.98
2022-08-26T12:44:36.596Z,77.98
2022-08-26T12:47:10.443Z,77.97
2022-08-26T12:49:40.545Z,77.33
2022-08-26T12:52:30.932Z,78.41
2022-08-26T12:55:02.743Z,79.78
2022-08-26T12:57:36.221Z,78.63
2022-08-26T13:00:31.991Z,79.52
2022-08-26T13:03:01.997Z,78.42
2022-08-26T13:05:35.156Z,79.14
2022-08-26T13:08:16.623Z,79.33
2022-08-26T13:10:48.730Z,80.00
2022-08-26T13:13:18.390Z,81.06
2022-08-26T13:15:46.749Z,81.57
2022-08-26T13:18:15.089Z,80.97
2022-08-26T13:20:45.122Z,81.28
2022-08-26T13:23:14.138Z,79.96
2022-08-26T13:25:42.705Z,81.62
2022-08-26T13:28:11.028Z,80.58
2022-08-26T13:30:41.906Z,81.98
2022-08-26T13:33:12.252Z,82.26
2022-08-26T13:35:43.526Z,82.25
2022-08-26T13:38:22.309Z,82.27
2022-08-26T13:41:02.710Z,81.13
2022-08-26T13:43:31.912Z,81.41
2022-08-26T13:46:02.629Z,81.35
2022-08-26T13:48:31.548Z,80.86
2022-08-26T13:51:00.180Z,79.77
2022-08-26T13:53:29.507Z,81.25
2022-08-26T13:55:58.783Z,81.85
2022-08-26T13:58:27.903Z,80.45
2022-08-26T14:00:58.131Z,81.71
2022-08-26T14:03:28.152Z,83.13
2022-08-26T14:05:56.644Z,83.12
2022-08-26T14:08:25.333Z,81.69
2022-08-26T14:10:53.810Z,83.15
2022-08-26T14:13:22.618Z,86.14
2022-08-26T14:15:51.169Z,85.68
2022-08-26T14:18:24.188Z,87.60
2022-08-26T14:20:56.142Z,88.64
2022-08-26T14:23:24.851Z,88.88
2022-08-26T14:25:53.541Z,86.88
2022-08-26T14:28:21.939Z,86.41
2022-08-26T14:30:56.445Z,88.37
2022-08-26T14:33:29.109Z,85.43
2022-08-26T14:36:18.811Z,86.76
2022-08-26T14:38:47.584Z,87.25
2022-08-26T14:41:18.251Z,86.61
2022-08-26T14:43:54.528Z,87.66
2022-08-26T14:46:22.949Z,87.71
2022-08-26T14:48:51.275Z,88.15
2022-08-26T14:51:24.040Z,87.88
2022-08-26T14:54:10.896Z,87.72
2022-08-26T14:56:42.262Z,85.79
2022-08-26T14:59:10.755Z,85.80
2022-08-26T15:01:39.256Z,85.10
2022-08-26T15:04:07.816Z,84.48
2022-08-26T15:06:38.215Z,84.29
2022-08-26T15:09:07.361Z,83.62
2022-08-26T15:11:36.165Z,85.17
2022-08-26T15:14:04.651Z,86.22
2022-08-26T15:16:33.750Z,86.68
2022-08-26T15:19:04.513Z,87.43
2022-08-26T15:21:34.040Z,85.64
2022-08-26T15:24:05.056Z,85.04
2022-08-26T15:26:35.755Z,84.71
2022-08-26T15:29:05.317Z,85.49
2022-08-26T15:31:34.969Z,86.29
2022-08-26T15:34:07.598Z,85.83
2022-08-26T15:36:38.224Z,87.95
2022-08-26T15:39:09.456Z,88.26
2022-08-26T15:41:38.239Z,87.66
2022-08-26T15:44:09.177Z,86.55
2022-08-26T15:46:38.671Z,85.96
2022-08-26T15:49:07.681Z,85.16
2022-08-26T15:51:45.333Z,85.49
2022-08-26T15:54:18.134Z,84.64
2022-08-26T15:56:48.546Z,84.37
2022-08-26T15:59:17.788Z,84.20
2022-08-26T16:01:46.709Z,82.05
2022-08-26T16:04:15.487Z,83.27
2022-08-26T16:06:44.005Z,84.81
2022-08-26T16:09:12.986Z,83.81
2022-08-26T16:11:43.027Z,84.97
2022-08-26T16:14:11.408Z,84.90
2022-08-26T16:16:41.351Z,84.06
2022-08-26T16:19:11.589Z,86.04
2022-08-26T16:21:40.863Z,86.24
2022-08-26T16:24:09.347Z,86.46
2022-08-26T16:26:39.923Z,84.86
2022-08-26T16:29:12.688Z,83.88
2022-08-26T16:31:41.656Z,84.94
2022-08-26T16:34:10.932Z,84.77
2022-08-26T16:36:40.552Z,85.60
2022-08-26T16:39:10.072Z,85.39
2022-08-26T16:41:38.579Z,84.56
2022-08-26T16:44:11.453Z,85.52
2022-08-26T16:46:41.230Z,86.79
2022-08-26T16:49:09.677Z,86.36
2022-08-26T16:51:38.602Z,85.89
2022-08-26T16:54:08.983Z,87.02
2022-08-26T16:56:38.807Z,83.91
2022-08-26T16:59:11.515Z,85.23
2022-08-26T17:01:40.048Z,83.75
2022-08-26T17:04:08.591Z,85.57
2022-08-26T17:06:38.277Z,87.20
2022-08-26T17:09:06.974Z,87.96
2022-08-26T17:11:36.039Z,85.53
2022-08-26T17:14:05.390Z,88.51
2022-08-26T17:16:35.516Z,88.14
2022-08-26T17:19:05.589Z,87.89
2022-08-26T17:21:35.491Z,88.60
2022-08-26T17:24:05.024Z,89.80
2022-08-26T17:26:34.015Z,89.87
2022-08-26T17:29:02.376Z,88.45
2022-08-26T17:31:32.551Z,91.70
2022-08-26T17:34:02.292Z,92.03
2022-08-26T17:36:31.504Z,91.31
2022-08-26T17:39:00.419Z,91.16
2022-08-26T17:41:30.120Z,91.52
2022-08-26T17:43:58.831Z,89.99
2022-08-26T17:46:27.534Z,90.79
2022-08-26T17:48:56.406Z,90.68
2022-08-26T17:51:27.038Z,89.79
2022-08-26T17:53:55.752Z,87.15
2022-08-26T17:56:28.078Z,88.03
2022-08-26T17:59:02.267Z,87.57
2022-08-26T18:01:31.329Z,87.53
2022-08-26T18:04:00.974Z,89.02
2022-08-26T18:06:31.619Z,88.49
2022-08-26T18:09:00.646Z,87.44
2022-08-26T18:11:31.247Z,89.53
2022-08-26T18:14:00.406Z,89.87
2022-08-26T18:16:34.134Z,92.19
2022-08-26T18:19:02.572Z,94.31
2022-08-26T18:21:32.350Z,90.46
2022-08-26T18:24:00.715Z,93.83
2022-08-26T18:26:32.222Z,96.55
2022-08-26T18:29:01.884Z,95.41
2022-08-26T18:31:31.117Z,96.43
2022-08-26T18:34:01.562Z,94.73
2022-08-26T18:36:34.579Z,92.90
2022-08-26T18:39:04.793Z,93.81
2022-08-26T18:41:39.777Z,91.17
2022-08-26T18:44:12.942Z,90.73
2022-08-26T18:46:43.198Z,88.40
2022-08-26T18:49:13.461Z,88.16
2022-08-26T18:51:44.375Z,89.96
2022-08-26T18:54:13.564Z,89.78
2022-08-26T18:56:43.807Z,89.29
2022-08-26T18:59:13.619Z,91.22
2022-08-26T19:01:43.386Z,90.17
2022-08-26T19:04:15.387Z,86.74
2022-08-26T19:06:48.357Z,90.09
2022-08-26T19:09:17.882Z,88.90
2022-08-26T19:11:47.055Z,89.98
2022-08-26T19:14:19.308Z,89.21
2022-08-26T19:16:52.527Z,86.90
2022-08-26T19:19:23.884Z,86.54
2022-08-26T19:21:54.287Z,89.21
2022-08-26T19:24:27.433Z,88.19
2022-08-26T19:27:00.826Z,88.93
2022-08-26T19:29:32.155Z,90.96
2022-08-26T19:32:00.948Z,91.08
2022-08-26T19:34:29.550Z,91.26
2022-08-26T19:36:59.336Z,92.32
2022-08-26T19:39:28.596Z,91.48
2022-08-26T19:41:56.988Z,91.21
2022-08-26T19:44:42.707Z,95.47
2022-08-26T19:47:13.411Z,90.26
2022-08-26T19:49:41.779Z,90.99
2022-08-26T19:52:12.261Z,93.55
2022-08-26T19:54:41.506Z,94.02
2022-08-26T19:57:11.137Z,91.23
2022-08-26T19:59:40.250Z,91.02
2022-08-26T20:02:11.044Z,90.08
2022-08-26T20:04:41.614Z,93.03
2022-08-26T20:07:14.225Z,90.84
2022-08-26T20:09:45.045Z,90.52
2022-08-26T20:12:13.693Z,91.90
2022-08-26T20:14:43.003Z,92.33
2022-08-26T20:17:12.117Z,89.71
2022-08-26T20:19:57.818Z,90.67
2022-08-26T20:22:28.217Z,92.52
2022-08-26T20:24:56.639Z,86.28
2022-08-26T20:27:34.337Z,89.30
2022-08-26T20:30:09.397Z,90.62
2022-08-26T20:32:38.552Z,92.73
2022-08-26T20:35:10.653Z,91.83
2022-08-26T20:37:40.821Z,93.50
2022-08-26T20:40:13.189Z,95.83
2022-08-26T20:42:41.713Z,92.06
2022-08-26T20:45:11.528Z,91.96
2022-08-26T20:47:39.937Z,93.05
2022-08-26T20:50:09.337Z,92.71
2022-08-26T20:52:39.079Z,95.94
2022-08-26T20:55:08.672Z,90.58
2022-08-26T20:57:37.364Z,96.00
2022-08-26T21:00:07.710Z,94.26
2022-08-26T21:02:37.063Z,95.36
2022-08-26T21:05:06.592Z,94.11
2022-08-26T21:07:36.958Z,95.58
2022-08-26T21:10:07.607Z,97.66
2022-08-26T21:12:36.841Z,95.52
2022-08-26T21:15:07.462Z,96.61
2022-08-26T21:17:36.613Z,93.65
2022-08-26T21:20:06.041Z,95.53
2022-08-26T21:22:34.469Z,94.18
2022-08-26T21:25:03.025Z,95.32
2022-08-26T21:27:33.156Z,95.26
2022-08-26T21:30:01.508Z,94.58
2022-08-26T21:32:29.890Z,96.53
2022-08-26T21:34:59.719Z,94.01
2022-08-26T21:37:29.437Z,93.67
2022-08-26T21:40:01.938Z,96.20
2022-08-26T21:42:35.796Z,94.71
2022-08-26T21:45:05.602Z,94.30
2022-08-26T21:47:34.006Z,97.79
2022-08-26T21:50:02.460Z,98.48
2022-08-26T21:52:30.831Z,96.70
2022-08-26T21:55:00.302Z,100.00
2022-08-26T21:57:30.264Z,100.00
2022-08-26T22:00:00.490Z,100.00
2022-08-26T22:02:33.173Z,100.00
2022-08-26T22:05:01.560Z,99.22
2022-08-26T22:07:29.939Z,100.00
2022-08-26T22:09:58.279Z,95.65
2022-08-26T22:12:26.616Z,99.08
2022-08-26T22:14:55.691Z,100.00
2022-08-26T22:17:26.509Z,100.00
2022-08-26T22:19:55.169Z,100.00
2022-08-26T22:22:26.298Z,100.00
2022-08-26T22:24:54.703Z,100.00
2022-08-26T22:27:23.125Z,100.00
2022-08-26T22:29:51.551Z,100.00
2022-08-26T22:32:20.016Z,100.00
2022-08-26T22:34:49.739Z,100.00
2022-08-26T22:37:18.119Z,100.00
2022-08-26T22:39:46.439Z,100.00
2022-08-26T22:42:15.467Z,100.00
2022-08-26T22:44:44.128Z,100.00
2022-08-26T22:47:12.562Z,100.00
2022-08-26T22:49:40.881Z,100.00
2022-08-26T22:52:10.598Z,100.00
2022-08-26T22:54:40.174Z,100.00
2022-08-26T22:57:09.842Z,100.00
2022-08-26T22:59:39.451Z,100.00
2022-08-26T23:02:12.128Z,100.00
2022-08-26T23:04:42.787Z,100.00
2022-08-26T23:07:13.882Z,100.00
2022-08-26T23:09:43.633Z,100.00
2022-08-26T23:12:13.757Z,100.00
2022-08-26T23:14:43.976Z,100.00
2022-08-26T23:17:14.391Z,100.00
2022-08-26T23:19:44.191Z,100.00
2022-08-26T23:22:16.926Z,100.00
2022-08-26T23:24:46.711Z,100.00
2022-08-26T23:27:16.738Z,100.00
2022-08-26T23:29:46.535Z,100.00
2022-08-26T23:32:15.196Z,100.00
2022-08-26T23:34:59.622Z,100.00
2022-08-26T23:37:33.572Z,100.00
2022-08-26T23:40:06.911Z,100.00
2022-08-26T23:42:36.219Z,100.00
2022-08-26T23:45:05.748Z,100.00
2022-08-26T23:47:34.627Z,100.00
2022-08-26T23:50:03.268Z,100.00
2022-08-26T23:52:50.622Z,100.00
2022-08-26T23:55:19.297Z,100.00
2022-08-26T23:57:47.981Z,100.00
